Time;durP1;ratioP1;P1;durP2;ratioP2;P2;SDS_P1;SDS_P2;PMS_P1;PMS_P2;Temp;Humidity;BMP_temperature;BMP_pressure;BME280_temperature;BME280_humidity;BME280_pressure;Samples;Min_cycle;Max_cycle;Signal;HPM_P1;HPM_P2
2024/02/15 00:00:11;;;;;;;3.28;1.90;;;;;;;8.83;100.00;97856.56;5031348;28;20482;-78
2024/02/15 00:02:38;;;;;;;3.20;1.75;;;;;;;8.81;100.00;97849.88;5031104;28;20449;-77
2024/02/15 00:05:05;;;;;;;1.80;1.50;;;;;;;8.80;100.00;97858.81;5031172;28;20407;-77
2024/02/15 00:07:32;;;;;;;3.65;1.40;;;;;;;8.78;100.00;97853.81;5030851;28;20387;-78
2024/02/15 00:09:58;;;;;;;1.65;1.55;;;;;;;8.78;100.00;97850.34;5030977;28;20780;-78
2024/02/15 00:12:25;;;;;;;2.05;1.60;;;;;;;8.77;100.00;97854.03;5034587;28;20963;-78
2024/02/15 00:14:51;;;;;;;3.25;1.60;;;;;;;8.77;100.00;97854.03;5035046;28;20506;-77
2024/02/15 00:17:18;;;;;;;3.22;1.80;;;;;;;8.76;100.00;97852.41;5034493;28;20411;-77
2024/02/15 00:19:46;;;;;;;4.65;1.83;;;;;;;8.75;100.00;97856.06;5034923;28;20908;-77
2024/02/15 00:22:12;;;;;;;2.40;1.50;;;;;;;8.76;100.00;97849.78;5034970;28;20765;-77
2024/02/15 00:24:39;;;;;;;1.48;1.38;;;;;;;8.77;100.00;97848.75;5035147;28;20455;-78
2024/02/15 00:27:06;;;;;;;3.63;1.77;;;;;;;8.79;100.00;97851.97;5035130;28;20391;-77
2024/02/15 00:29:34;;;;;;;2.38;1.58;;;;;;;8.79;100.00;97852.78;5035189;28;20391;-78
2024/02/15 00:32:00;;;;;;;2.33;1.75;;;;;;;8.81;100.00;97855.97;5037467;28;20443;-78
2024/02/15 00:34:26;;;;;;;2.95;1.65;;;;;;;8.82;100.00;97851.50;5037181;28;20919;-78
2024/02/15 00:36:54;;;;;;;2.03;1.70;;;;;;;8.82;100.00;97851.50;5036977;28;20418;-79
2024/02/15 00:39:20;;;;;;;1.70;1.60;;;;;;;8.83;100.00;97843.34;5037104;28;20461;-79
2024/02/15 00:41:47;;;;;;;5.07;2.28;;;;;;;8.80;100.00;97843.78;5036906;28;20435;-79
2024/02/15 00:44:13;;;;;;;3.67;1.83;;;;;;;8.81;100.00;97834.03;5039369;28;20962;-78
2024/02/15 00:46:41;;;;;;;3.10;1.73;;;;;;;8.78;100.00;97839.78;5036788;28;20405;-79
2024/02/15 00:49:07;;;;;;;2.53;1.77;;;;;;;8.75;100.00;97841.03;5036224;28;20498;-78
2024/02/15 00:51:35;;;;;;;5.15;2.17;;;;;;;8.71;100.00;97831.19;5036678;28;20445;-79
2024/02/15 00:54:03;;;;;;;3.67;1.90;;;;;;;8.68;100.00;97837.72;5036972;28;20399;-78
2024/02/15 00:56:32;;;;;;;2.05;1.85;;;;;;;8.68;100.00;97835.06;5036954;28;20518;-79
2024/02/15 00:59:03;;;;;;;3.60;1.95;;;;;;;8.67;100.00;97830.81;5038559;28;20466;-78
2024/02/15 01:01:29;;;;;;;2.28;1.85;;;;;;;8.67;100.00;97832.66;5039232;28;20395;-79
2024/02/15 01:03:55;;;;;;;3.20;1.70;;;;;;;8.65;100.00;97835.50;5038472;28;20433;-79
2024/02/15 01:06:22;;;;;;;1.80;1.60;;;;;;;8.64;100.00;97831.28;5038442;28;20888;-78
2024/02/15 01:08:48;;;;;;;5.33;2.10;;;;;;;8.66;100.00;97834.50;5039559;28;20395;-79
2024/02/15 01:11:15;;;;;;;3.10;1.83;;;;;;;8.67;100.00;97830.00;5039734;28;20438;-78
2024/02/15 01:13:42;;;;;;;1.92;1.60;;;;;;;8.67;100.00;97832.66;5038621;28;20403;-78
2024/02/15 01:16:08;;;;;;;2.35;1.63;;;;;;;8.66;100.00;97831.84;5038020;28;20418;-78
2024/02/15 01:18:34;;;;;;;2.42;1.70;;;;;;;8.67;100.00;97824.75;5038411;28;20958;-78
2024/02/15 01:21:01;;;;;;;2.70;2.00;;;;;;;8.66;100.00;97829.22;5038926;28;20884;-78
2024/02/15 01:23:27;;;;;;;3.15;1.63;;;;;;;8.64;100.00;97833.94;5038446;28;20465;-78
2024/02/15 01:25:53;;;;;;;4.32;2.03;;;;;;;8.61;100.00;97831.75;5039410;28;20402;-78
2024/02/15 01:28:21;;;;;;;1.85;1.70;;;;;;;8.54;100.00;97831.03;5038536;28;20406;-78
2024/02/15 01:30:48;;;;;;;2.30;1.70;;;;;;;8.47;100.00;97825.88;5042601;28;20396;-79
2024/02/15 01:33:14;;;;;;;5.47;1.87;;;;;;;8.42;100.00;97822.31;5037511;28;20440;-79
2024/02/15 01:35:40;;;;;;;4.30;2.13;;;;;;;8.34;100.00;97820.00;5036973;28;20477;-79
2024/02/15 01:38:06;;;;;;;4.68;2.22;;;;;;;8.27;100.00;97825.31;5035907;28;20399;-78
2024/02/15 01:40:33;;;;;;;3.05;2.00;;;;;;;8.22;100.00;97821.75;5035936;28;20403;-79
2024/02/15 01:43:00;;;;;;;4.30;2.20;;;;;;;8.21;100.00;97823.56;5035481;28;20432;-78
2024/02/15 01:45:28;;;;;;;3.42;2.13;;;;;;;8.21;100.00;97822.78;5034718;28;20410;-78
2024/02/15 01:47:55;;;;;;;4.47;1.98;;;;;;;8.16;100.00;97821.63;5034508;28;20899;-78
2024/02/15 01:50:22;;;;;;;5.65;2.20;;;;;;;8.14;100.00;97817.59;5034984;28;20482;-78
2024/02/15 01:52:52;;;;;;;4.07;2.00;;;;;;;8.09;100.00;97820.91;5036877;28;20403;-79
2024/02/15 01:55:18;;;;;;;2.45;1.92;;;;;;;8.03;100.00;97819.19;5046153;28;20414;-79
2024/02/15 01:57:45;;;;;;;3.55;2.08;;;;;;;7.97;100.00;97821.91;5040593;28;20417;-79
2024/02/15 02:00:13;;;;;;;4.45;2.20;;;;;;;7.90;100.00;97815.91;5035036;28;20403;-78
2024/02/15 02:02:44;;;;;;;4.13;2.17;;;;;;;7.87;100.00;97822.44;5034160;28;20399;-78
2024/02/15 02:05:10;;;;;;;3.90;2.20;;;;;;;7.85;100.00;97823.69;5034534;28;20498;-79
2024/02/15 02:07:36;;;;;;;4.60;2.30;;;;;;;7.81;100.00;97811.97;5038614;28;20460;-79
2024/02/15 02:10:03;;;;;;;3.13;2.00;;;;;;;7.77;100.00;97819.50;5040078;28;20399;-79
2024/02/15 02:12:29;;;;;;;2.67;1.73;;;;;;;7.69;100.00;97828.53;5036379;28;20463;-79
2024/02/15 02:14:56;;;;;;;2.30;1.95;;;;;;;7.61;100.00;97817.47;5035062;28;20411;-78
2024/02/15 02:17:22;;;;;;;4.63;1.92;;;;;;;7.54;100.00;97820.19;5034846;28;20403;-78
2024/02/15 02:19:50;;;;;;;2.65;1.90;;;;;;;7.48;100.00;97815.00;5034645;28;20438;-78
2024/02/15 02:22:19;;;;;;;2.87;1.90;;;;;;;7.42;100.00;97810.63;5034479;28;20455;-78
2024/02/15 02:25:03;;;;;;;4.00;2.10;;;;;;;7.34;100.00;97817.81;5034780;28;20737;-79
2024/02/15 02:27:31;;;;;;;4.05;2.30;;;;;;;7.31;100.00;97812.16;5016992;28;20442;-79
2024/02/15 02:29:59;;;;;;;5.90;2.40;;;;;;;7.29;100.00;97806.31;5037297;28;20521;-79
2024/02/15 02:32:26;;;;;;;3.67;2.10;;;;;;;7.24;100.00;97811.41;5033668;28;20399;-78
2024/02/15 02:34:57;;;;;;;4.00;2.40;;;;;;;7.23;100.00;97815.06;5034228;28;20419;-78
2024/02/15 02:37:23;;;;;;;3.53;2.43;;;;;;;7.25;100.00;97815.66;5034768;28;20399;-78
2024/02/15 02:39:49;;;;;;;4.22;2.08;;;;;;;7.24;100.00;97817.50;5036323;28;20391;-79
2024/02/15 02:42:16;;;;;;;5.88;2.22;;;;;;;7.24;100.00;97821.94;5037339;28;20771;-78
2024/02/15 02:44:43;;;;;;;6.47;2.50;;;;;;;7.21;100.00;97815.31;5037086;28;20745;-77
2024/02/15 02:47:09;;;;;;;4.03;2.08;;;;;;;7.22;100.00;97819.53;5034630;28;20445;-78
2024/02/15 02:49:36;;;;;;;4.55;2.47;;;;;;;7.20;100.00;97816.34;5035373;28;20406;-78
2024/02/15 02:52:03;;;;;;;6.18;2.65;;;;;;;7.21;100.00;97822.41;5034735;28;20391;-78
2024/02/15 02:54:30;;;;;;;4.78;2.33;;;;;;;7.21;100.00;97820.59;5034514;28;20871;-78
2024/02/15 02:56:56;;;;;;;5.45;2.22;;;;;;;7.19;100.00;97817.34;5034532;28;20414;-78
2024/02/15 02:59:24;;;;;;;5.53;2.70;;;;;;;7.15;100.00;97821.44;5034539;28;20395;-78
2024/02/15 03:01:50;;;;;;;4.43;2.30;;;;;;;7.12;100.00;97819.25;5034211;28;20406;-78
2024/02/15 03:04:19;;;;;;;2.58;2.10;;;;;;;7.08;100.00;97818.06;5034605;28;20469;-78
2024/02/15 03:06:46;;;;;;;4.38;2.30;;;;;;;7.06;100.00;97814.06;5034030;28;20431;-78
2024/02/15 03:09:14;;;;;;;5.32;2.70;;;;;;;7.03;100.00;97812.66;5034216;28;20880;-78
2024/02/15 03:11:40;;;;;;;7.13;2.45;;;;;;;7.03;100.00;97812.66;5034259;28;20395;-78
2024/02/15 03:14:06;;;;;;;5.97;2.75;;;;;;;7.02;100.00;97803.16;5033982;28;20403;-78
2024/02/15 03:16:34;;;;;;;4.53;2.25;;;;;;;7.06;100.00;97808.78;5034147;28;20422;-78
2024/02/15 03:19:03;;;;;;;5.47;2.50;;;;;;;7.05;100.00;97807.19;5034484;28;20402;-78
2024/02/15 03:21:29;;;;;;;3.03;2.42;;;;;;;7.02;100.00;97813.69;5033893;28;20399;-78
2024/02/15 03:23:55;;;;;;;3.25;2.28;;;;;;;6.98;100.00;97810.69;5034275;28;20457;-77
2024/02/15 03:26:31;;;;;;;4.80;2.50;;;;;;;6.91;100.00;97801.25;5034154;28;20823;-78
2024/02/15 03:28:57;;;;;;;2.95;2.30;;;;;;;6.84;100.00;97808.41;5034313;28;20414;-77
2024/02/15 03:31:23;;;;;;;5.57;2.50;;;;;;;6.78;100.00;97812.69;5033828;28;20448;-78
2024/02/15 03:33:50;;;;;;;3.92;2.60;;;;;;;6.74;100.00;97813.34;5034109;28;20390;-78
2024/02/15 03:36:19;;;;;;;6.30;2.20;;;;;;;6.69;100.00;97808.72;5033265;28;20422;-77
2024/02/15 03:38:46;;;;;;;7.68;2.30;;;;;;;6.63;100.00;97809.56;5033760;28;20498;-78
2024/02/15 03:41:13;;;;;;;3.22;2.28;;;;;;;6.61;100.00;97814.25;5034243;28;20740;-78
2024/02/15 03:43:39;;;;;;;4.90;2.30;;;;;;;6.58;100.00;97812.06;5033875;28;20868;-78
2024/02/15 03:46:07;;;;;;;4.57;2.30;;;;;;;6.53;100.00;97806.63;5034947;28;20441;-78
2024/02/15 03:48:33;;;;;;;3.13;2.33;;;;;;;6.51;100.00;97804.22;5038529;28;20406;-78
2024/02/15 03:51:01;;;;;;;5.90;2.60;;;;;;;6.50;100.00;97801.78;5038547;28;20399;-78
2024/02/15 03:53:30;;;;;;;3.92;2.35;;;;;;;6.48;100.00;97807.25;5038323;28;20482;-78
2024/02/15 03:55:56;;;;;;;3.47;2.30;;;;;;;6.53;100.00;97809.28;5037991;28;20464;-78
2024/02/15 03:58:22;;;;;;;3.85;2.63;;;;;;;6.64;100.00;97816.44;5038259;28;20788;-77
2024/02/15 04:00:48;;;;;;;4.90;2.80;;;;;;;6.81;100.00;97816.72;5038060;28;20402;-78
2024/02/15 04:03:14;;;;;;;5.20;2.70;;;;;;;6.95;100.00;97820.84;5037018;28;20433;-78
2024/02/15 04:05:40;;;;;;;11.13;2.90;;;;;;;7.09;100.00;97822.31;5037483;28;20486;-78
2024/02/15 04:08:09;;;;;;;5.03;2.83;;;;;;;7.24;100.00;97814.88;5038185;28;20403;-78
2024/02/15 04:10:35;;;;;;;4.25;2.42;;;;;;;7.39;100.00;97822.41;5041389;28;20399;-78
2024/02/15 04:13:01;;;;;;;4.50;2.22;;;;;;;7.52;100.00;97818.81;5036236;28;20394;-78
2024/02/15 04:15:28;;;;;;;4.50;2.40;;;;;;;7.60;100.00;97819.31;5039227;28;20449;-78
2024/02/15 04:17:56;;;;;;;5.90;2.58;;;;;;;7.63;100.00;97818.88;5039899;28;20456;-77
2024/02/15 04:20:22;;;;;;;3.27;2.40;;;;;;;7.74;100.00;97825.25;5036437;28;20488;-77
2024/02/15 04:22:50;;;;;;;4.35;2.30;;;;;;;7.78;100.00;97823.75;5035408;28;20398;-78
2024/02/15 04:25:20;;;;;;;4.95;2.30;;;;;;;7.86;100.00;97823.47;5036354;28;21081;-78
2024/02/15 04:27:52;;;;;;;5.00;2.30;;;;;;;7.91;100.00;97815.69;5037971;28;20422;-78
2024/02/15 04:30:19;;;;;;;6.55;2.55;;;;;;;7.91;100.00;97815.69;5038211;28;20449;-78
2024/02/15 04:32:46;;;;;;;6.57;2.65;;;;;;;7.95;100.00;97816.03;5038507;28;20466;-78
2024/02/15 04:35:14;;;;;;;6.55;2.70;;;;;;;7.95;100.00;97814.22;5035781;28;20748;-78
2024/02/15 04:37:40;;;;;;;6.70;2.47;;;;;;;7.96;100.00;97812.38;5036882;28;20426;-78
2024/02/15 04:40:10;;;;;;;10.60;2.93;;;;;;;7.95;100.00;97824.75;5035726;28;20453;-78
2024/02/15 04:42:40;;;;;;;4.93;2.50;;;;;;;8.03;100.00;97806.00;5036001;28;20429;-78
2024/02/15 04:45:11;;;;;;;5.60;2.22;;;;;;;8.07;100.00;97814.25;5035254;28;20411;-78
2024/02/15 04:47:37;;;;;;;3.58;2.20;;;;;;;8.06;100.00;97813.44;5035641;28;20426;-77
2024/02/15 04:50:05;;;;;;;6.83;2.50;;;;;;;8.06;100.00;97810.00;5035836;28;20402;-78
2024/02/15 04:52:32;;;;;;;4.40;2.40;;;;;;;8.11;100.00;97808.31;5035661;28;20399;-77
2024/02/15 04:54:58;;;;;;;4.82;2.58;;;;;;;8.10;100.00;97801.44;5036027;28;20402;-79
2024/02/15 04:57:30;;;;;;;3.80;2.10;;;;;;;8.16;100.00;97799.72;5036094;28;20914;-78
2024/02/15 04:59:59;;;;;;;5.50;2.30;;;;;;;8.10;100.00;97798.00;5036394;28;21026;-78
2024/02/15 05:02:25;;;;;;;6.33;2.40;;;;;;;8.16;100.00;97787.34;5036441;28;20417;-77
2024/02/15 05:04:56;;;;;;;5.40;2.30;;;;;;;8.18;100.00;97791.59;5036224;28;20391;-78
2024/02/15 05:07:22;;;;;;;4.47;2.30;;;;;;;8.19;100.00;97791.38;5036940;28;20434;-78
2024/02/15 05:09:48;;;;;;;6.32;2.55;;;;;;;8.19;100.00;97793.22;5039458;28;20495;-78
2024/02/15 05:12:24;;;;;;;5.38;2.60;;;;;;;8.18;100.00;97786.31;5041910;28;20399;-78
2024/02/15 05:14:50;;;;;;;5.78;2.33;;;;;;;8.16;100.00;97797.09;5040955;28;20395;-78
2024/02/15 05:17:17;;;;;;;5.03;2.35;;;;;;;8.19;100.00;97803.75;5040740;28;20792;-78
2024/02/15 05:19:44;;;;;;;3.38;1.98;;;;;;;8.15;100.00;97801.56;5036510;28;20395;-78
2024/02/15 05:22:11;;;;;;;7.10;2.53;;;;;;;8.13;100.00;97795.69;5035965;28;20410;-78
2024/02/15 05:24:40;;;;;;;5.95;2.30;;;;;;;8.15;100.00;97787.56;5036276;28;20395;-77
2024/02/15 05:27:06;;;;;;;3.45;2.20;;;;;;;8.18;100.00;97781.84;5035981;28;20467;-77
2024/02/15 05:29:34;;;;;;;6.20;2.17;;;;;;;8.21;100.00;97791.13;5038004;28;20399;-78
2024/02/15 05:32:01;;;;;;;4.72;2.42;;;;;;;8.20;100.00;97784.25;5038848;28;20426;-77
2024/02/15 05:34:32;;;;;;;4.25;2.47;;;;;;;8.23;100.00;97778.53;5036248;28;20399;-77
2024/02/15 05:36:58;;;;;;;2.25;2.00;;;;;;;8.21;100.00;97784.03;5035604;28;20450;-78
2024/02/15 05:39:25;;;;;;;3.50;2.50;;;;;;;8.17;100.00;97780.25;5034942;28;20403;-78
2024/02/15 05:41:51;;;;;;;9.70;2.50;;;;;;;8.11;100.00;97775.88;5035960;28;20399;-78
2024/02/15 05:44:20;;;;;;;6.93;2.63;;;;;;;8.12;100.00;97766.91;5035513;28;20489;-77
2024/02/15 05:46:47;;;;;;;5.17;2.20;;;;;;;8.09;100.00;97770.81;5035240;28;20482;-78
2024/02/15 05:49:17;;;;;;;4.87;2.30;;;;;;;8.13;100.00;97777.22;5035331;28;20467;-78
2024/02/15 05:51:45;;;;;;;5.25;2.38;;;;;;;8.14;100.00;97778.03;5036528;28;20899;-81
2024/02/15 05:54:11;;;;;;;3.45;2.30;;;;;;;8.15;100.00;97783.09;5043145;28;20405;-81
2024/02/15 05:56:37;;;;;;;2.95;1.92;;;;;;;8.14;100.00;97786.75;5037929;28;20427;-80
2024/02/15 05:59:10;;;;;;;5.35;2.53;;;;;;;8.08;100.00;97776.31;5039377;28;20403;-80
2024/02/15 06:01:36;;;;;;;4.28;2.38;;;;;;;8.11;100.00;97781.16;5040223;28;20461;-81
2024/02/15 06:04:07;;;;;;;4.38;2.20;;;;;;;8.06;100.00;97776.53;5042265;28;20865;-79
2024/02/15 06:06:33;;;;;;;5.85;2.92;;;;;;;8.07;100.00;97786.06;5039541;28;20399;-80
2024/02/15 06:09:02;;;;;;;6.97;2.35;;;;;;;8.10;100.00;97787.44;5038008;28;20391;-81
2024/02/15 06:11:28;;;;;;;4.75;2.05;;;;;;;8.10;100.00;97780.34;5038990;28;20514;-80
2024/02/15 06:13:54;;;;;;;5.82;2.70;;;;;;;8.06;100.00;97776.53;5038372;28;20399;-81
2024/02/15 06:16:21;;;;;;;5.20;2.60;;;;;;;8.09;100.00;97777.94;5039228;28;20421;-80
2024/02/15 06:18:48;;;;;;;4.40;2.42;;;;;;;8.11;100.00;97774.03;5038849;28;20395;-80
2024/02/15 06:21:14;;;;;;;4.57;2.17;;;;;;;8.08;100.00;97779.75;5039082;28;20480;-81
2024/02/15 06:23:40;;;;;;;4.97;2.33;;;;;;;8.10;100.00;97777.72;5039304;28;20398;-80
2024/02/15 06:26:08;;;;;;;5.53;2.60;;;;;;;8.08;100.00;97777.13;5039540;28;20411;-80
2024/02/15 06:39:44;;;;;;;4.55;2.30;;;;;;;7.85;100.00;97769.13;5059801;28;20412;-79
2024/02/15 06:42:16;;;;;;;7.28;2.58;;;;;;;7.80;100.00;97771.66;5059159;28;20410;-79
2024/02/15 06:44:43;;;;;;;3.45;2.50;;;;;;;7.73;100.00;97769.09;5046020;28;20437;-78
2024/02/15 06:47:10;;;;;;;4.70;2.40;;;;;;;7.70;100.00;97779.28;5039107;28;20438;-79
2024/02/15 06:49:39;;;;;;;5.45;2.50;;;;;;;7.65;100.00;97781.78;5040161;28;20456;-79
2024/02/15 06:52:06;;;;;;;4.20;2.53;;;;;;;7.62;100.00;97779.56;5040157;28;20395;-78
2024/02/15 06:54:33;;;;;;;2.78;2.35;;;;;;;7.58;100.00;97778.44;5038489;28;20468;-78
2024/02/15 06:57:01;;;;;;;2.63;2.13;;;;;;;7.56;100.00;97777.84;5038010;28;20407;-79
2024/02/15 06:59:28;;;;;;;3.72;2.60;;;;;;;7.55;100.00;97778.84;5037524;28;20398;-78
2024/02/15 07:01:55;;;;;;;3.97;2.38;;;;;;;7.54;100.00;97774.59;5038064;28;20399;-78
2024/02/15 07:04:21;;;;;;;4.68;2.78;;;;;;;7.54;100.00;97785.94;5037203;28;20415;-78
2024/02/15 07:06:49;;;;;;;4.70;2.53;;;;;;;7.54;100.00;97779.88;5037341;28;20509;-78
2024/02/15 07:09:15;;;;;;;6.10;2.40;;;;;;;7.55;100.00;97784.94;5037955;28;20403;-79
2024/02/15 07:11:42;;;;;;;6.47;2.70;;;;;;;7.57;100.00;97789.97;5035249;28;20451;-78
2024/02/15 07:14:09;;;;;;;6.10;3.10;;;;;;;7.61;100.00;97783.22;5037686;28;20399;-78
2024/02/15 07:16:36;;;;;;;8.32;3.00;;;;;;;7.65;100.00;97787.03;5039256;28;20419;-78
2024/02/15 07:19:03;;;;;;;4.88;2.75;;;;;;;7.71;100.00;97786.16;5038391;28;20431;-78
2024/02/15 07:21:31;;;;;;;5.30;2.55;;;;;;;7.77;100.00;97785.25;5039352;28;20399;-78
2024/02/15 07:23:57;;;;;;;4.43;2.80;;;;;;;7.83;100.00;97776.44;5039192;28;21069;-79
2024/02/15 07:26:25;;;;;;;6.43;3.00;;;;;;;7.88;100.00;97760.78;5037606;28;22447;-78
2024/02/15 07:28:53;;;;;;;5.57;2.80;;;;;;;7.98;100.00;97752.31;5046067;28;20396;-78
2024/02/15 07:31:21;;;;;;;6.45;2.78;;;;;;;8.02;100.00;97759.56;5040708;28;20407;-79
2024/02/15 07:33:48;;;;;;;5.75;2.80;;;;;;;8.13;100.00;97755.34;5041732;28;20406;-80
2024/02/15 07:36:19;;;;;;;7.05;2.65;;;;;;;8.18;100.00;97744.13;5040538;28;20453;-80
2024/02/15 07:38:45;;;;;;;3.47;2.40;;;;;;;8.28;100.00;97739.88;5043345;28;20407;-81
2024/02/15 07:41:12;;;;;;;3.28;2.10;;;;;;;8.34;100.00;97736.41;5045471;28;20399;-80
2024/02/15 07:43:39;;;;;;;7.13;2.58;;;;;;;8.41;100.00;97731.81;5042335;28;20410;-81
2024/02/15 07:46:05;;;;;;;8.98;2.33;;;;;;;8.53;100.00;97729.16;5046843;28;20403;-83
2024/02/15 07:48:31;;;;;;;8.02;2.65;;;;;;;8.61;100.00;97730.66;5049868;28;20405;-82
2024/02/15 07:50:59;;;;;;;4.90;2.25;;;;;;;8.78;100.00;97731.59;5045408;28;20406;-79
2024/02/15 07:53:25;;;;;;;4.00;2.30;;;;;;;8.88;100.00;97726.50;5055455;28;20407;-81
2024/02/15 07:55:51;;;;;;;9.18;2.42;;;;;;;9.00;100.00;97714.09;5050452;28;20526;-81
2024/02/15 07:58:18;;;;;;;2.87;2.00;;;;;;;9.13;100.00;97719.13;5051921;28;20864;-81
2024/02/15 08:00:44;;;;;;;6.13;2.70;;;;;;;9.16;100.00;97712.59;5045044;28;20391;-79
2024/02/15 08:03:11;;;;;;;4.47;2.08;;;;;;;9.25;100.00;97714.59;5050573;28;20386;-80
2024/02/15 08:05:37;;;;;;;4.93;2.17;;;;;;;9.26;100.00;97710.94;5045112;28;20434;-80
2024/02/15 08:08:06;;;;;;;6.13;2.80;;;;;;;9.31;100.00;97705.75;5054776;28;20401;-83
2024/02/15 08:10:33;;;;;;;4.50;2.03;;;;;;;9.49;100.00;97704.75;5051078;28;20459;-80
2024/02/15 08:12:59;;;;;;;4.78;2.10;;;;;;;9.65;100.00;97701.38;5050284;28;20399;-81
2024/02/15 08:15:27;;;;;;;5.60;2.22;;;;;;;9.84;100.00;97691.41;5039972;28;20415;-80
2024/02/15 08:17:55;;;;;;;4.90;2.00;;;;;;;9.91;100.00;97692.03;5037180;28;20423;-80
2024/02/15 08:20:21;;;;;;;6.38;2.15;;;;;;;9.93;100.00;97686.50;5044720;28;20407;-81
2024/02/15 08:22:48;;;;;;;4.35;2.65;;;;;;;10.02;100.00;97690.34;5046136;28;20911;-82
2024/02/15 08:25:17;;;;;;;5.78;2.50;;;;;;;10.16;100.00;97688.19;5057992;28;20393;-80
2024/02/15 08:27:49;;;;;;;7.33;2.97;;;;;;;10.31;100.00;97681.31;5053492;28;20484;-82
2024/02/15 08:30:17;;;;;;;4.63;2.03;;;;;;;10.56;100.00;97690.69;5051214;28;20391;-80
2024/02/15 08:32:45;;;;;;;5.63;2.00;;;;;;;10.81;100.00;97681.25;5053271;28;20452;-80
2024/02/15 08:35:12;;;;;;;5.10;2.10;;;;;;;10.94;100.00;97676.63;5055235;28;20404;-81
2024/02/15 08:37:39;;;;;;;5.70;2.10;;;;;;;11.05;100.00;97665.91;5055970;28;20395;-82
2024/02/15 08:40:10;;;;;;;4.90;2.20;;;;;;;11.00;100.00;97659.75;5050047;28;20625;-78
2024/02/15 08:42:38;;;;;;;5.90;2.10;;;;;;;11.02;100.00;97657.66;5068106;28;20439;-82
2024/02/15 08:45:08;;;;;;;6.03;2.08;;;;;;;10.87;100.00;97655.63;5068974;28;20390;-82
2024/02/15 08:47:37;;;;;;;4.68;1.60;;;;;;;10.80;100.00;97655.03;5070678;28;20447;-84
2024/02/15 08:50:04;;;;;;;5.15;1.92;;;;;;;10.62;100.00;97652.66;5050430;28;20479;-83
2024/02/15 08:52:30;;;;;;;5.20;1.90;;;;;;;10.48;100.00;97653.00;5046828;28;20433;-80
2024/02/15 08:54:58;;;;;;;2.88;1.50;;;;;;;10.48;100.00;97654.84;5050394;28;20407;-82
2024/02/15 08:57:25;;;;;;;5.07;1.70;;;;;;;10.49;100.00;97656.44;5054772;28;20457;-79
2024/02/15 08:59:53;;;;;;;3.85;2.00;;;;;;;10.58;100.00;97654.19;5066752;28;20388;-80
2024/02/15 09:02:19;;;;;;;3.42;1.80;;;;;;;10.70;100.00;97654.88;5063622;28;20397;-81
2024/02/15 09:04:45;;;;;;;3.70;1.88;;;;;;;10.98;100.00;97646.75;5061287;28;20428;-80
2024/02/15 09:07:11;;;;;;;3.95;1.88;;;;;;;11.30;100.00;97646.06;5059639;28;20407;-83
2024/02/15 09:09:38;;;;;;;3.78;1.85;;;;;;;11.59;100.00;97642.91;5057219;28;20478;-82
2024/02/15 09:12:05;;;;;;;4.43;2.25;;;;;;;11.79;100.00;97638.88;5053113;28;20440;-81
2024/02/15 09:14:32;;;;;;;4.67;1.97;;;;;;;11.96;100.00;97642.19;5053642;28;20406;-83
2024/02/15 09:17:00;;;;;;;3.93;1.83;;;;;;;12.23;100.00;97640.31;5059492;28;20463;-79
2024/02/15 09:19:26;;;;;;;4.60;1.50;;;;;;;12.49;100.00;97638.59;5054405;28;20429;-80
2024/02/15 09:21:55;;;;;;;1.92;1.40;;;;;;;12.85;100.00;97636.13;5054670;28;20407;-83
2024/02/15 09:24:21;;;;;;;3.45;1.30;;;;;;;13.28;100.00;97642.97;5052669;28;20777;-84
2024/02/15 09:26:47;;;;;;;3.67;1.30;;;;;;;13.77;100.00;97640.66;5044475;28;20402;-82
2024/02/15 09:29:13;;;;;;;3.17;1.20;;;;;;;14.30;100.00;97644.63;5044309;28;20392;-84
2024/02/15 09:31:40;;;;;;;3.00;1.20;;;;;;;14.81;100.00;97633.91;5046447;28;20435;-85
2024/02/15 09:34:08;;;;;;;4.50;1.90;;;;;;;15.06;100.00;97634.59;5049508;28;20425;-84
2024/02/15 09:36:35;;;;;;;5.88;1.70;;;;;;;15.37;100.00;97629.91;5049387;28;20411;-84
2024/02/15 09:39:01;;;;;;;2.75;1.98;;;;;;;15.69;100.00;97629.50;5055525;28;20406;-85
2024/02/15 09:41:28;;;;;;;4.60;1.90;;;;;;;16.12;100.00;97621.66;5044844;28;20403;-84
2024/02/15 09:43:54;;;;;;;2.73;1.50;;;;;;;16.59;100.00;97628.97;5044270;28;20395;-84
2024/02/15 09:46:20;;;;;;;2.65;1.30;;;;;;;16.96;100.00;97621.09;5053341;28;20409;-82
2024/02/15 09:48:51;;;;;;;6.63;1.73;;;;;;;17.11;100.00;97617.44;5052937;28;20406;-86
2024/02/15 09:51:20;;;;;;;3.45;1.60;;;;;;;17.39;100.00;97619.19;5055027;28;20598;-83
2024/02/15 09:53:47;;;;;;;2.50;1.30;;;;;;;17.61;100.00;97609.78;5050999;28;20399;-81
2024/02/15 09:56:15;;;;;;;2.13;1.25;;;;;;;17.89;100.00;97605.38;5045937;28;20443;-80
2024/02/15 09:58:43;;;;;;;2.60;1.13;;;;;;;18.29;100.00;97612.72;5048096;28;20395;-82
2024/02/15 10:01:10;;;;;;;2.40;1.40;;;;;;;18.70;100.00;97615.50;5046758;28;20403;-80
2024/02/15 10:03:40;;;;;;;2.47;1.20;;;;;;;19.22;100.00;97613.38;5042705;28;20886;-81
2024/02/15 10:06:06;;;;;;;3.58;1.10;;;;;;;19.72;100.00;97608.78;5046002;28;20401;-82
2024/02/15 10:08:34;;;;;;;6.97;1.42;;;;;;;19.69;100.00;97606.72;5049204;28;20396;-80
2024/02/15 10:11:08;;;;;;;2.88;1.17;;;;;;;20.10;100.00;97604.63;5043067;28;20478;-81
2024/02/15 10:13:34;;;;;;;1.38;0.90;;;;;;;20.34;100.00;97600.84;5042224;28;20411;-81
2024/02/15 10:16:16;;;;;;;2.20;1.00;;;;;;;20.58;100.00;97595.09;5045304;28;20411;-81
2024/02/15 10:18:42;;;;;;;1.13;0.85;;;;;;;20.82;100.00;97592.81;5044134;28;20783;-80
2024/02/15 10:21:09;;;;;;;1.95;0.70;;;;;;;21.14;100.00;97592.41;5040414;28;20412;-78
2024/02/15 10:23:36;;;;;;;1.60;0.80;;;;;;;21.44;100.00;97589.94;5042563;28;20410;-80
2024/02/15 10:26:20;;;;;;;1.27;0.68;;;;;;;21.79;100.00;97586.16;5045913;28;20395;-80
2024/02/15 10:28:47;;;;;;;4.00;0.90;;;;;;;21.66;100.00;97580.91;5044566;28;20427;-81
2024/02/15 10:31:13;;;;;;;2.22;1.00;;;;;;;21.55;100.00;97588.53;5055579;28;20398;-80
2024/02/15 10:33:39;;;;;;;1.52;0.77;;;;;;;21.73;100.00;97575.81;5061989;28;20443;-82
2024/02/15 10:36:07;;;;;;;1.25;0.90;;;;;;;21.96;100.00;97577.22;5043877;28;20415;-84
2024/02/15 10:38:34;;;;;;;2.30;1.03;;;;;;;22.20;100.00;97571.34;5042995;28;20422;-82
2024/02/15 10:41:06;;;;;;;0.90;0.60;;;;;;;22.33;100.00;97576.53;5041147;28;20425;-80
2024/02/15 10:43:33;;;;;;;1.60;0.77;;;;;;;22.59;100.00;97570.25;5040878;28;20419;-81
2024/02/15 10:46:00;;;;;;;0.98;0.52;;;;;;;22.98;100.00;97566.44;5040321;28;20402;-81
2024/02/15 10:48:30;;;;;;;1.20;0.68;;;;;;;23.33;100.00;97562.38;5041590;28;20449;-82
2024/02/15 10:50:59;;;;;;;2.30;0.80;;;;;;;23.32;100.00;97558.09;5043608;28;20398;-82
2024/02/15 10:53:27;;;;;;;2.40;0.90;;;;;;;23.31;100.00;97559.22;5042933;28;20391;-80
2024/02/15 10:55:59;;;;;;;1.00;0.60;;;;;;;23.44;100.00;97566.28;5040348;28;20415;-80
2024/02/15 10:58:34;;;;;;;2.73;0.83;;;;;;;23.23;100.00;97564.72;5039416;28;20407;-82
2024/02/15 11:01:03;;;;;;;1.40;0.65;;;;;;;23.34;100.00;97553.16;5039506;28;20401;-81
2024/02/15 11:03:35;;;;;;;2.45;0.70;;;;;;;23.52;100.00;97549.25;5043349;28;20425;-80
2024/02/15 11:06:06;;;;;;;1.20;0.60;;;;;;;23.71;100.00;97548.75;5044086;28;20421;-83
2024/02/15 11:08:32;;;;;;;0.83;0.50;;;;;;;23.77;100.00;97549.34;5040086;28;20414;-83
2024/02/15 11:11:01;;;;;;;1.70;0.80;;;;;;;23.69;100.00;97539.38;5045635;28;20922;-83
2024/02/15 11:13:29;;;;;;;3.15;0.98;;;;;;;23.31;100.00;97545.72;5045102;28;20464;-83
2024/02/15 11:15:55;;;;;;;2.10;0.80;;;;;;;23.38;100.00;97537.09;5048087;28;20415;-81
2024/02/15 11:18:45;;;;;;;1.57;0.70;;;;;;;23.21;100.00;97529.13;5047580;28;20471;-81
2024/02/15 11:21:11;;;;;;;0.90;0.60;;;;;;;23.29;100.00;97522.88;5049755;28;20395;-80
2024/02/15 11:23:38;;;;;;;0.90;0.50;;;;;;;23.32;100.00;97514.88;5050112;28;20399;-82
2024/02/15 11:26:08;;;;;;;2.55;0.50;;;;;;;23.45;100.00;97513.03;5049457;28;20409;-81
2024/02/15 11:28:40;;;;;;;3.15;1.10;;;;;;;23.20;100.00;97514.81;5042241;28;20400;-82
2024/02/15 11:31:08;;;;;;;1.80;0.98;;;;;;;22.78;100.00;97522.88;5041136;28;20465;-82
2024/02/15 11:33:35;;;;;;;1.90;0.90;;;;;;;22.69;100.00;97521.34;5056289;28;20411;-81
2024/02/15 11:36:06;;;;;;;1.48;0.85;;;;;;;22.42;100.00;97510.97;5059978;28;20467;-82
2024/02/15 11:38:34;;;;;;;1.45;0.80;;;;;;;22.46;100.00;97520.03;5056414;28;20397;-82
2024/02/15 11:41:02;;;;;;;1.97;0.90;;;;;;;22.44;100.00;97519.53;5049985;28;20399;-81
2024/02/15 11:43:57;;;;;;;3.33;1.17;;;;;;;21.95;100.00;97509.03;5037145;28;20406;-82